KNEW

Lakefront Airport

New Orleans, Louisiana, USA
METAR KNEW 242053Z 16008KT 10SM FEW090 BKN110 29/23 A2992 RMK AO2 LTG DSNT NE AND SE SLP125 60016 T02940228 56016
Observed Flight Rules
Sep-24 @ 20:53 UTC (29 minutes ago) Visual Flight Rules
Wind Visibility Clouds
160° at 8 knots 10 miles
  • Few at 9,000' AGL
  • Broken at 11,000' AGL
Temperatures Readings
Current 29°C / 84°F
Dewpoint 23°C / 73°F
Humidity 70%
Altimeter 29.92" Hg
Pressure 1012.5 hPa
Elevation 3
METAR KNEW 242053Z 16008KT 10SM FEW090 BKN110 29/23 A2992 RMK AO2 LTG DSNT NE AND SE SLP125 60016 T02940228 56016
Observed Flight Rules
Sep-24 @ 20:53 UTC
(29 minutes ago)
VFR
Wind Visibility
160° at 8 knots 10 miles
Clouds
  • Few at 9,000' AGL
  • Broken at 11,000' AGL
Temperature Dewpoint
29°C / 84°F 23°C / 73°F
Humidity Altimeter Pressure
70% 29.92" Hg 1012.5 hPa